Kyokuhoumaru No.12 — JL5963 — position and weather

sailwx.info

Track history (hours):
 
Tides and Currents Weather Stations Pressure Air Temp Water Temp Dewpoint Dewpoint Depression Visibility Wind Speed Wind Dir Waves Ship Positions

Kyokuhoumaru No.12

Last reported at 2017-Aug-22 20:09 UTC. Time now 2017-Aug-24 04:53 UTC.
Position N 34°32' E 135°21'.

Length 57 m.

Type: Tanker. MMSI: 431500879.

Date/timePositionNaut miles runAvg speedWind from/ knotsBaromVisibWave heightAir tempDewpointWater temp
2017-Aug-22 20:09N 34°32' E 135°21'0 0.0
2017-Aug-22 17:45N 34°32' E 135°21'0 0.0
2017-Aug-22 15:39N 34°32' E 135°21'0 0.1
2017-Aug-22 14:45N 34°32' E 135°21'0 0.2
2017-Aug-22 14:27N 34°32' E 135°21'1 2.0
2017-Aug-22 13:58N 34°32' E 135°20'5 9.1
2017-Aug-22 13:29N 34°33' E 135°14'5 9.9
2017-Aug-22 13:00N 34°34' E 135°09'  
2017-Aug-13 23:23N 35°06' E 139°39'4 9.4
2017-Aug-13 22:58N 35°08' E 139°43'4 9.6
2017-Aug-13 22:30N 35°12' E 139°46'4 8.5
2017-Aug-13 22:00N 35°16' E 139°45'5 9.0
2017-Aug-13 21:29N 35°20' E 139°42'4 9.0
2017-Aug-13 21:00N 35°25' E 139°43'4 7.8
2017-Aug-13 20:30N 35°28' E 139°42'1 1.2
2017-Aug-13 19:53N 35°29' E 139°42'0 0.0
2017-Aug-13 19:29N 35°29' E 139°42'0 0.0
2017-Aug-13 18:59N 35°29' E 139°42'0 0.0
2017-Aug-13 18:29N 35°29' E 139°42'0 0.0
2017-Aug-13 17:59N 35°29' E 139°42'0 0.0
2017-Aug-13 17:29N 35°29' E 139°42'0 0.0
2017-Aug-13 16:59N 35°29' E 139°42'0 0.0
2017-Aug-13 16:29N 35°29' E 139°42'0 0.0
2017-Aug-13 15:59N 35°29' E 139°42'0 0.0
2017-Aug-13 15:29N 35°29' E 139°42'0 0.0
2017-Aug-13 14:59N 35°29' E 139°42'0 0.0
2017-Aug-13 14:29N 35°29' E 139°42'0 0.0
2017-Aug-13 02:33N 35°29' E 139°42'0 1.0
2017-Aug-13 02:30N 35°29' E 139°42'0 0.1
2017-Aug-13 02:00N 35°29' E 139°42'0 0.0
2017-Aug-13 01:30N 35°29' E 139°42'0 0.0
2017-Aug-13 01:00N 35°29' E 139°42'0 0.0
2017-Aug-13 00:30N 35°29' E 139°42'  
Track history (hours):
 
Tides and Currents Weather Stations Pressure Air Temp Water Temp Dewpoint Dewpoint Depression Visibility Wind Speed Wind Dir Waves Ship Positions

Kyokuhoumaru No.12

Last reported at 2017-Aug-22 20:09 UTC. Time now 2017-Aug-24 04:53 UTC.
Position N 34°32' E 135°21'.

Length 57 m.

Type: Tanker. MMSI: 431500879.

Date/timePositionNaut miles runAvg speedWind from/ knotsBaromVisibWave heightAir tempDewpointWater temp
2017-Aug-22 20:09N 34°32' E 135°21'0 0.0
2017-Aug-22 17:45N 34°32' E 135°21'0 0.0
2017-Aug-22 15:39N 34°32' E 135°21'0 0.1
2017-Aug-22 14:45N 34°32' E 135°21'0 0.2
2017-Aug-22 14:27N 34°32' E 135°21'1 2.0
2017-Aug-22 13:58N 34°32' E 135°20'5 9.1
2017-Aug-22 13:29N 34°33' E 135°14'5 9.9
2017-Aug-22 13:00N 34°34' E 135°09'  
2017-Aug-13 23:23N 35°06' E 139°39'4 9.4
2017-Aug-13 22:58N 35°08' E 139°43'4 9.6
2017-Aug-13 22:30N 35°12' E 139°46'4 8.5
2017-Aug-13 22:00N 35°16' E 139°45'5 9.0
2017-Aug-13 21:29N 35°20' E 139°42'4 9.0
2017-Aug-13 21:00N 35°25' E 139°43'4 7.8
2017-Aug-13 20:30N 35°28' E 139°42'1 1.2
2017-Aug-13 19:53N 35°29' E 139°42'0 0.0
2017-Aug-13 19:29N 35°29' E 139°42'0 0.0
2017-Aug-13 18:59N 35°29' E 139°42'0 0.0
2017-Aug-13 18:29N 35°29' E 139°42'0 0.0
2017-Aug-13 17:59N 35°29' E 139°42'0 0.0
2017-Aug-13 17:29N 35°29' E 139°42'0 0.0
2017-Aug-13 16:59N 35°29' E 139°42'0 0.0
2017-Aug-13 16:29N 35°29' E 139°42'0 0.0
2017-Aug-13 15:59N 35°29' E 139°42'0 0.0
2017-Aug-13 15:29N 35°29' E 139°42'0 0.0
2017-Aug-13 14:59N 35°29' E 139°42'0 0.0
2017-Aug-13 14:29N 35°29' E 139°42'0 0.0
2017-Aug-13 02:33N 35°29' E 139°42'0 1.0
2017-Aug-13 02:30N 35°29' E 139°42'0 0.1
2017-Aug-13 02:00N 35°29' E 139°42'0 0.0
2017-Aug-13 01:30N 35°29' E 139°42'0 0.0
2017-Aug-13 01:00N 35°29' E 139°42'0 0.0
2017-Aug-13 00:30N 35°29' E 139°42'  

Dump ship's entire track history